createdAt,value
2019-04-20T00:00:07.912Z,35.08
2019-04-20T00:00:59.840Z,35.18
2019-04-20T00:02:12.416Z,35.37
2019-04-20T00:03:01.330Z,35.45
2019-04-20T00:03:58.852Z,35.83
2019-04-20T00:04:57.425Z,36.31
2019-04-20T00:05:57.645Z,36.88
2019-04-20T00:06:59.167Z,37.36
2019-04-20T00:08:01.087Z,37.84
2019-04-20T00:09:12.854Z,38.32
2019-04-20T00:10:10.797Z,38.7
2019-04-20T00:11:13.054Z,39.06
2019-04-20T00:12:20.168Z,39.25
2019-04-20T00:13:44.257Z,39.44
2019-04-20T00:14:32.819Z,39.73
2019-04-20T00:15:22.478Z,39.92
2019-04-20T00:16:23.506Z,40.2
2019-04-20T00:17:22.468Z,40.4
2019-04-20T00:18:25.619Z,40.57
2019-04-20T00:19:37.034Z,40.66
2019-04-20T00:20:32.092Z,40.76
2019-04-20T00:21:24.667Z,40.86
2019-04-20T00:22:34.068Z,40.95
2019-04-20T00:23:36.622Z,41.14
2019-04-20T00:24:33.587Z,41.14
2019-04-20T00:25:38.487Z,41.14
2019-04-20T00:27:36.882Z,41.33
2019-04-20T00:29:44.670Z,41.24
2019-04-20T00:31:42.695Z,41.52
2019-04-20T00:33:04.501Z,41.52
2019-04-20T00:34:25.498Z,41.81
2019-04-20T00:35:10.698Z,41.81
2019-04-20T00:36:12.156Z,41.81
2019-04-20T00:37:11.251Z,41.88
2019-04-20T00:38:11.624Z,41.98
2019-04-20T00:39:17.098Z,42.08
2019-04-20T00:40:10.643Z,42.17
2019-04-20T00:41:17.181Z,42.36
2019-04-20T00:42:17.649Z,42.46
2019-04-20T00:43:12.909Z,42.46
2019-04-20T00:44:25.029Z,42.65
2019-04-20T00:45:25.505Z,42.65
2019-04-20T00:46:29.112Z,42.84
2019-04-20T00:47:59.083Z,43.03
2019-04-20T00:49:20.482Z,43.41
2019-04-20T00:51:30.385Z,43.98
2019-04-20T00:53:22.547Z,44.15
2019-04-20T00:54:02.504Z,44.25
2019-04-20T00:54:58.379Z,44.34
2019-04-20T00:55:59.545Z,44.53
2019-04-20T00:57:24.314Z,44.82
2019-04-20T00:58:31.438Z,45.01
2019-04-20T01:00:16.242Z,45.39
2019-04-20T01:02:33.217Z,46.06
2019-04-20T01:04:23.672Z,46.63
2019-04-20T01:06:40.472Z,46.82
2019-04-20T01:07:53.442Z,46.89
2019-04-20T01:08:36.450Z,46.89
2019-04-20T01:09:35.675Z,46.99
2019-04-20T01:10:47.119Z,46.99
2019-04-20T01:11:45.420Z,47.18
2019-04-20T01:12:42.394Z,47.28
2019-04-20T01:13:52.464Z,47.56
2019-04-20T01:14:51.995Z,47.85
2019-04-20T01:15:55.037Z,48.13
2019-04-20T01:16:56.821Z,48.23
2019-04-20T01:17:41.446Z,48.32
2019-04-20T01:18:39.394Z,48.52
2019-04-20T01:19:39.392Z,48.9
2019-04-20T01:20:39.380Z,48.99
2019-04-20T01:21:42.925Z,48.99
2019-04-20T01:22:59.987Z,48.99
2019-04-20T01:23:54.910Z,49.08
2019-04-20T01:24:46.897Z,49.08
2019-04-20T01:25:46.957Z,49.18
2019-04-20T01:26:54.787Z,49.28
2019-04-20T01:28:17.455Z,49.54
2019-04-20T01:29:46.673Z,49.73
2019-04-20T01:30:58.013Z,49.73
2019-04-20T01:32:23.121Z,50.01
2019-04-20T01:33:54.902Z,50.3
2019-04-20T01:35:29.907Z,50.4
2019-04-20T01:37:25.639Z,50.97
2019-04-20T01:39:13.462Z,51.25
2019-04-20T01:40:02.946Z,51.45
2019-04-20T01:40:55.151Z,51.45
2019-04-20T01:41:56.062Z,51.64
2019-04-20T01:42:55.668Z,51.82
2019-04-20T01:43:54.768Z,51.92
2019-04-20T01:44:58.933Z,52.01
2019-04-20T01:46:09.061Z,52.11
2019-04-20T01:47:03.485Z,52.2
2019-04-20T01:48:01.169Z,52.18
2019-04-20T01:48:59.044Z,52.09
2019-04-20T01:50:07.507Z,52.09
2019-04-20T01:51:13.966Z,52.09
2019-04-20T01:52:19.940Z,52.18
2019-04-20T01:53:43.968Z,52.37
2019-04-20T01:55:42.312Z,52.56
2019-04-20T01:57:04.575Z,52.84
2019-04-20T01:58:45.999Z,53.04
2019-04-20T02:00:13.111Z,53.23
2019-04-20T02:00:59.469Z,53.32
2019-04-20T02:02:06.853Z,53.52
2019-04-20T02:03:03.621Z,53.89
2019-04-20T02:03:59.138Z,54.27
2019-04-20T02:05:04.367Z,54.63
2019-04-20T02:06:09.621Z,54.82
2019-04-20T02:07:03.252Z,55.01
2019-04-20T02:07:58.998Z,55.1
2019-04-20T02:09:10.019Z,55.2
2019-04-20T02:10:06.206Z,55.2
2019-04-20T02:11:04.292Z,55.29
2019-04-20T02:12:04.716Z,55.29
2019-04-20T02:13:03.321Z,55.29
2019-04-20T02:14:04.914Z,55.29
2019-04-20T02:15:04.629Z,55.2
2019-04-20T02:16:11.211Z,55.29
2019-04-20T02:17:16.624Z,55.29
2019-04-20T02:18:35.773Z,55.29
2019-04-20T02:20:27.371Z,55.39
2019-04-20T02:22:29.683Z,55.49
2019-04-20T02:23:54.547Z,55.42
2019-04-20T02:24:37.420Z,55.42
2019-04-20T02:25:37.961Z,55.32
2019-04-20T02:26:37.195Z,55.32
2019-04-20T02:27:51.670Z,55.22
2019-04-20T02:34:03.295Z,55.42
2019-04-20T02:37:48.456Z,55.51
2019-04-20T02:45:57.180Z,56.82
2019-04-20T02:49:09.740Z,57.29
2019-04-20T02:52:37.858Z,57.48
2019-04-20T02:55:47.439Z,57.87
2019-04-20T02:59:58.575Z,58.53
2019-04-20T03:02:18.010Z,58.79
2019-04-20T03:03:41.299Z,58.98
2019-04-20T03:04:39.011Z,59.17
2019-04-20T03:06:13.229Z,59.45
2019-04-20T03:07:56.961Z,59.64
2019-04-20T03:10:10.565Z,60.12
2019-04-20T03:12:49.308Z,60.12
2019-04-20T03:14:51.260Z,60.5
2019-04-20T03:16:58.505Z,60.97
2019-04-20T03:19:15.819Z,61.45
2019-04-20T03:21:24.415Z,61.74
2019-04-20T03:24:30.871Z,61.93
2019-04-20T03:27:05.592Z,62.12
2019-04-20T03:29:09.543Z,62.56
2019-04-20T03:35:05.005Z,63.51
2019-04-20T03:38:04.473Z,63.6
2019-04-20T03:40:04.214Z,63.6
2019-04-20T03:41:34.837Z,63.89
2019-04-20T03:42:14.172Z,63.89
2019-04-20T03:43:12.342Z,63.79
2019-04-20T03:44:21.308Z,63.7
2019-04-20T03:45:19.881Z,63.7
2019-04-20T03:46:19.755Z,63.6
2019-04-20T03:47:30.109Z,63.6
2019-04-20T03:49:12.816Z,63.7
2019-04-20T03:51:46.614Z,63.7
2019-04-20T03:53:58.575Z,63.7
2019-04-20T03:55:44.312Z,63.99
2019-04-20T03:58:08.326Z,64.08
2019-04-20T04:00:09.814Z,64.46
2019-04-20T04:03:01.283Z,64.62
2019-04-20T04:05:13.265Z,64.72
2019-04-20T04:06:44.771Z,64.72
2019-04-20T04:07:43.562Z,64.81
2019-04-20T04:09:02.243Z,64.81
2019-04-20T04:10:30.083Z,64.72
2019-04-20T04:12:20.258Z,64.72
2019-04-20T04:12:54.678Z,64.81
2019-04-20T04:13:52.826Z,64.9
2019-04-20T04:14:52.165Z,65
2019-04-20T04:16:04.749Z,65
2019-04-20T04:17:02.289Z,65.09
2019-04-20T04:17:57.591Z,65.09
2019-04-20T04:19:15.766Z,65.19
2019-04-20T04:20:10.053Z,65.19
2019-04-20T04:21:08.836Z,65.19
2019-04-20T04:22:43.239Z,65.28
2019-04-20T04:24:31.317Z,65.38
2019-04-20T04:26:15.924Z,65.38
2019-04-20T04:28:01.180Z,65.28
2019-04-20T04:30:05.043Z,65.38
2019-04-20T04:32:39.249Z,65.28
2019-04-20T04:35:23.163Z,65.28
2019-04-20T04:37:16.182Z,65.38
2019-04-20T04:39:30.551Z,65.47
2019-04-20T04:42:06.931Z,65.38
2019-04-20T04:44:14.281Z,65.19
2019-04-20T04:45:14.469Z,65.19
2019-04-20T04:46:05.714Z,65.19
2019-04-20T04:47:11.864Z,65.13
2019-04-20T04:48:06.618Z,65.03
2019-04-20T04:49:24.703Z,65.03
2019-04-20T04:50:18.219Z,64.94
2019-04-20T04:51:21.145Z,64.84
2019-04-20T04:52:17.878Z,64.84
2019-04-20T04:53:41.455Z,64.65
2019-04-20T04:54:56.515Z,64.65
2019-04-20T04:56:07.080Z,64.75
2019-04-20T04:56:54.967Z,64.84
2019-04-20T04:57:54.017Z,64.84
2019-04-20T04:58:54.173Z,65.03
2019-04-20T04:59:53.550Z,65.03
2019-04-20T05:01:00.975Z,65.13
2019-04-20T05:01:58.724Z,65.32
2019-04-20T05:03:03.776Z,65.41
2019-04-20T05:05:40.944Z,65.41
2019-04-20T05:07:22.911Z,65.51
2019-04-20T05:08:38.546Z,65.41
2019-04-20T05:09:27.576Z,65.22
2019-04-20T05:10:24.821Z,65.22
2019-04-20T05:11:26.181Z,65.22
2019-04-20T05:12:33.479Z,65.22
2019-04-20T05:13:41.572Z,65.13
2019-04-20T05:14:49.594Z,65.03
2019-04-20T05:16:23.348Z,64.84
2019-04-20T05:18:41.120Z,64.65
2019-04-20T05:20:52.901Z,64.56
2019-04-20T05:23:08.393Z,64.5
2019-04-20T05:24:56.482Z,64.31
2019-04-20T05:27:18.886Z,64.02
2019-04-20T05:28:58.790Z,63.83
2019-04-20T05:29:39.781Z,63.83
2019-04-20T05:30:48.489Z,63.64
2019-04-20T05:31:50.883Z,63.35
2019-04-20T05:32:59.355Z,63.26
2019-04-20T05:34:52.219Z,62.97
2019-04-20T05:37:14.888Z,62.88
2019-04-20T05:39:49.900Z,62.59
2019-04-20T05:41:51.234Z,62.21
2019-04-20T05:44:04.520Z,61.67
2019-04-20T05:46:00.785Z,61.1
2019-04-20T05:48:11.620Z,60.72
2019-04-20T05:50:19.516Z,60.72
2019-04-20T05:52:55.980Z,60.53
2019-04-20T05:55:24.883Z,60.15
2019-04-20T05:57:41.450Z,59.89
2019-04-20T06:00:13.418Z,60.08
2019-04-20T06:02:43.681Z,60.08
2019-04-20T06:05:27.334Z,59.54
2019-04-20T06:07:47.157Z,58.97
2019-04-20T06:10:25.816Z,59.74
2019-04-20T06:12:55.283Z,60.37
2019-04-20T06:14:23.315Z,60.66
2019-04-20T06:16:12.725Z,61.13
2019-04-20T06:18:29.789Z,61.42
2019-04-20T06:21:24.818Z,61.99
2019-04-20T06:24:01.660Z,61.9
2019-04-20T06:27:20.922Z,62.65
2019-04-20T06:31:17.835Z,59.35
2019-04-20T06:37:00.387Z,55.5
2019-04-20T06:42:47.959Z,51.43
2019-04-20T06:45:09.609Z,49.64
2019-04-20T06:48:05.523Z,48.68
2019-04-20T06:50:43.844Z,48.78
2019-04-20T06:53:11.882Z,48.04
2019-04-20T06:55:04.992Z,47.56
2019-04-20T06:57:54.057Z,47.27
2019-04-20T07:00:30.316Z,47.3
2019-04-20T07:03:04.347Z,46.92
2019-04-20T07:05:50.343Z,46.92
2019-04-20T07:11:42.409Z,46.72
2019-04-20T07:13:28.483Z,46.72
2019-04-20T07:14:42.543Z,46.25
2019-04-20T07:16:27.832Z,45.51
2019-04-20T07:19:12.696Z,44.74
2019-04-20T07:21:43.501Z,44.55
2019-04-20T07:24:40.109Z,44.45
2019-04-20T07:27:22.398Z,44.36
2019-04-20T07:30:03.369Z,43.79
2019-04-20T07:32:09.659Z,43.52
2019-04-20T07:34:38.362Z,43.8
2019-04-20T07:37:09.664Z,43.8
2019-04-20T07:40:05.424Z,43.71
2019-04-20T07:42:34.445Z,43.8
2019-04-20T07:45:41.175Z,43.43
2019-04-20T07:48:36.105Z,43.16
2019-04-20T07:50:34.577Z,43.16
2019-04-20T07:51:35.311Z,43.16
2019-04-20T07:52:50.760Z,43.06
2019-04-20T07:55:25.587Z,43.16
2019-04-20T07:57:46.564Z,42.6
2019-04-20T07:59:00.803Z,42.22
2019-04-20T08:01:14.063Z,42.03
2019-04-20T08:03:55.413Z,41.27
2019-04-20T08:05:48.379Z,41.46
2019-04-20T08:06:46.731Z,41.55
2019-04-20T08:07:56.743Z,41.46
2019-04-20T08:09:32.341Z,41.46
2019-04-20T08:10:53.490Z,41.17
2019-04-20T08:13:50.835Z,40.59
2019-04-20T08:16:58.106Z,40.9
2019-04-20T08:19:27.089Z,40.14
2019-04-20T08:21:50.889Z,40.14
2019-04-20T08:24:16.868Z,39.94
2019-04-20T08:26:01.384Z,40.23
2019-04-20T08:27:02.651Z,40.14
2019-04-20T08:27:47.199Z,39.37
2019-04-20T08:29:03.704Z,39.37
2019-04-20T08:30:51.111Z,39.37
2019-04-20T08:32:46.546Z,39.1
2019-04-20T08:35:13.711Z,38.91
2019-04-20T08:37:30.901Z,38.72
2019-04-20T08:40:43.375Z,38.53
2019-04-20T08:42:27.564Z,38.54
2019-04-20T08:45:34.429Z,37.87
2019-04-20T08:48:23.023Z,37.78
2019-04-20T08:50:57.038Z,37.4
2019-04-20T08:53:41.683Z,37.11
2019-04-20T08:55:41.200Z,37.3
2019-04-20T08:56:48.726Z,37.59
2019-04-20T08:57:35.187Z,37.68
2019-04-20T08:58:34.042Z,37.68
2019-04-20T08:59:36.662Z,37.87
2019-04-20T09:00:53.511Z,37.78
2019-04-20T09:01:39.356Z,37.7
2019-04-20T09:02:35.130Z,37.51
2019-04-20T09:03:58.732Z,37.51
2019-04-20T09:05:00.944Z,37.41
2019-04-20T09:06:15.166Z,37.13
2019-04-20T09:07:25.071Z,36.93
2019-04-20T09:08:30.734Z,36.65
2019-04-20T09:10:59.658Z,36.74
2019-04-20T09:13:05.336Z,35.88
2019-04-20T09:14:00.748Z,35.97
2019-04-20T09:14:53.208Z,36.26
2019-04-20T09:15:53.695Z,36.46
2019-04-20T09:17:02.595Z,36.66
2019-04-20T09:18:03.637Z,36.66
2019-04-20T09:19:07.542Z,36.66
2019-04-20T09:20:12.541Z,36.66
2019-04-20T09:21:24.143Z,36.47
2019-04-20T09:22:48.969Z,36.57
2019-04-20T09:24:43.067Z,36.95
2019-04-20T09:27:18.016Z,36.18
2019-04-20T09:28:28.346Z,35.51
2019-04-20T09:30:00.132Z,33.78
2019-04-20T09:31:42.991Z,34.84
2019-04-20T09:33:39.722Z,36.28
2019-04-20T09:35:53.027Z,35.13
2019-04-20T09:37:47.012Z,35.13
2019-04-20T09:39:20.850Z,35.03
2019-04-20T09:41:14.668Z,34.94
2019-04-20T09:42:07.071Z,34.76
2019-04-20T09:43:07.059Z,34.86
2019-04-20T09:44:07.108Z,34.76
2019-04-20T09:45:17.936Z,34.38
2019-04-20T09:46:11.790Z,34.09
2019-04-20T09:47:10.429Z,33.51
2019-04-20T09:48:23.888Z,33.13
2019-04-20T09:49:32.800Z,33.23
2019-04-20T09:51:19.943Z,33.8
2019-04-20T09:53:08.618Z,34.67
2019-04-20T09:54:45.087Z,34.67
2019-04-20T09:56:35.548Z,34.59
2019-04-20T09:58:26.785Z,34.39
2019-04-20T10:00:28.757Z,34.01
2019-04-20T10:01:48.797Z,33.62
2019-04-20T10:02:39.734Z,33.45
2019-04-20T10:03:34.541Z,33.26
2019-04-20T10:04:33.898Z,33.36
2019-04-20T10:05:33.736Z,33.26
2019-04-20T10:06:39.291Z,32.97
2019-04-20T10:07:39.204Z,32.68
2019-04-20T10:08:49.097Z,32.49
2019-04-20T10:09:44.512Z,33.16
2019-04-20T10:10:43.538Z,33.45
2019-04-20T10:11:35.151Z,33.45
2019-04-20T10:12:34.034Z,33.45
2019-04-20T10:13:34.631Z,33.07
2019-04-20T10:14:35.085Z,32.59
2019-04-20T10:15:35.464Z,32.31
2019-04-20T10:16:33.961Z,32.31
2019-04-20T10:17:36.908Z,32.31
2019-04-20T10:18:45.413Z,32.41
2019-04-20T10:19:39.516Z,32.39
2019-04-20T10:20:38.689Z,32.49
2019-04-20T10:21:34.294Z,32.3
2019-04-20T10:22:36.083Z,32.3
2019-04-20T10:23:34.920Z,32.59
2019-04-20T10:24:35.162Z,32.3
2019-04-20T10:25:36.298Z,32.12
2019-04-20T10:26:34.588Z,31.64
2019-04-20T10:27:35.112Z,31.26
2019-04-20T10:28:34.245Z,31.16
2019-04-20T10:29:33.803Z,30.97
2019-04-20T10:30:34.948Z,30.87
2019-04-20T10:31:50.374Z,30.87
2019-04-20T10:32:45.521Z,30.97
2019-04-20T10:33:33.811Z,30.87
2019-04-20T10:34:35.125Z,30.39
2019-04-20T10:35:34.188Z,30.19
2019-04-20T10:36:33.743Z,30
2019-04-20T10:37:34.050Z,30
2019-04-20T10:38:37.701Z,29.52
2019-04-20T10:39:34.246Z,29.43
2019-04-20T10:40:56.951Z,28.75
2019-04-20T10:42:01.075Z,28.66
2019-04-20T10:42:50.904Z,28.75
2019-04-20T10:43:51.416Z,28.96
2019-04-20T10:44:53.603Z,29.06
2019-04-20T10:45:51.301Z,28.86
2019-04-20T10:46:51.564Z,27.81
2019-04-20T10:47:50.885Z,27.51
2019-04-20T10:48:57.263Z,27.81
2019-04-20T10:49:53.058Z,27.42
2019-04-20T10:50:52.704Z,27.51
2019-04-20T10:51:51.991Z,27.61
2019-04-20T10:52:52.365Z,27.42
2019-04-20T10:53:51.088Z,27.05
2019-04-20T10:54:52.057Z,26.76
2019-04-20T10:55:51.949Z,26.37
2019-04-20T10:56:52.125Z,25.42
2019-04-20T10:57:51.750Z,25.32
2019-04-20T10:58:52.074Z,25.69
2019-04-20T10:59:52.145Z,26.09
2019-04-20T11:00:53.483Z,26.09
2019-04-20T11:01:52.161Z,25.9
2019-04-20T11:02:53.090Z,25.03
2019-04-20T11:03:50.796Z,24.66
2019-04-20T11:04:50.964Z,24.66
2019-04-20T11:05:52.842Z,24.56
2019-04-20T11:06:50.779Z,24.46
2019-04-20T11:07:50.891Z,24.18
2019-04-20T11:08:51.143Z,24.08
2019-04-20T11:10:14.443Z,24.18
2019-04-20T11:11:16.141Z,24.37
2019-04-20T11:11:54.851Z,23.99
2019-04-20T11:12:54.938Z,23.41
2019-04-20T11:13:55.017Z,23.32
2019-04-20T11:14:54.760Z,23.6
2019-04-20T11:15:55.103Z,23.9
2019-04-20T11:16:54.157Z,24.19
2019-04-20T11:17:55.286Z,24.19
2019-04-20T11:18:53.858Z,24.19
2019-04-20T11:19:54.983Z,24.19
2019-04-20T11:20:55.284Z,24.38
2019-04-20T11:21:54.563Z,24.48
2019-04-20T11:22:55.994Z,24.57
2019-04-20T11:23:54.528Z,24.67
2019-04-20T11:24:54.794Z,23.99
2019-04-20T11:25:55.974Z,22.46
2019-04-20T11:26:54.568Z,22.06
2019-04-20T11:27:54.690Z,21.97
2019-04-20T11:28:55.842Z,21.88
2019-04-20T11:29:54.341Z,22.36
2019-04-20T11:30:54.586Z,22.55
2019-04-20T11:31:59.354Z,22.93
2019-04-20T11:32:54.375Z,23.22
2019-04-20T11:33:54.664Z,22.84
2019-04-20T11:34:53.799Z,22.93
2019-04-20T11:35:54.920Z,22.75
2019-04-20T11:36:54.957Z,22.46
2019-04-20T11:37:53.757Z,21.98
2019-04-20T11:38:54.397Z,21.88
2019-04-20T11:39:55.245Z,21.88
2019-04-20T11:41:18.812Z,21.79
2019-04-20T11:41:54.165Z,21.8
2019-04-20T11:42:53.733Z,21.8
2019-04-20T11:43:53.974Z,21.89
2019-04-20T11:44:54.887Z,21.7
2019-04-20T11:45:54.409Z,22.57
2019-04-20T11:46:54.975Z,23.63
2019-04-20T11:47:54.043Z,23.92
2019-04-20T11:48:55.269Z,24.6
2019-04-20T11:49:53.781Z,24.79
2019-04-20T11:50:54.095Z,24.79
2019-04-20T11:51:55.282Z,24.3
2019-04-20T11:52:55.189Z,24.4
2019-04-20T11:53:54.683Z,24.79
2019-04-20T11:54:54.964Z,24.98
2019-04-20T11:55:54.570Z,24.88
2019-04-20T11:56:53.706Z,25.46
2019-04-20T11:57:54.118Z,25.27
2019-04-20T11:58:53.653Z,24.3
2019-04-20T11:59:54.906Z,24.5
2019-04-20T12:01:10.940Z,23.54
2019-04-20T12:02:04.467Z,22.96
2019-04-20T12:02:58.873Z,22.86
2019-04-20T12:04:18.534Z,22.57
2019-04-20T12:05:37.091Z,22.38
2019-04-20T12:06:13.061Z,22.67
2019-04-20T12:07:13.508Z,23.15
2019-04-20T12:08:13.660Z,23.63
2019-04-20T12:09:14.675Z,23.72
2019-04-20T12:10:22.656Z,23.83
2019-04-20T12:11:33.818Z,23.65
2019-04-20T12:12:47.162Z,23.93
2019-04-20T12:13:34.493Z,24.03
2019-04-20T12:14:32.945Z,24.03
2019-04-20T12:15:38.774Z,23.65
2019-04-20T12:16:35.243Z,23.46
2019-04-20T12:17:33.897Z,23.27
2019-04-20T12:18:34.166Z,22.5
2019-04-20T12:19:36.077Z,22.11
2019-04-20T12:20:32.862Z,22.02
2019-04-20T12:21:33.164Z,22.59
2019-04-20T12:22:32.856Z,23.25
2019-04-20T12:23:33.989Z,23.25
2019-04-20T12:24:33.682Z,23.35
2019-04-20T12:25:38.314Z,23.45
2019-04-20T12:26:33.457Z,22.67
2019-04-20T12:27:32.930Z,21.13
2019-04-20T12:28:33.988Z,20.46
2019-04-20T12:29:33.989Z,20.75
2019-04-20T12:30:33.467Z,21.33
2019-04-20T12:31:33.925Z,21.71
2019-04-20T12:32:42.778Z,22.49
2019-04-20T12:33:34.458Z,23.45
2019-04-20T12:34:33.156Z,24.13
2019-04-20T12:35:33.890Z,24.14
2019-04-20T12:36:33.192Z,23.94
2019-04-20T12:37:34.262Z,23.17
2019-04-20T12:38:33.260Z,23.46
2019-04-20T12:39:33.664Z,23.56
2019-04-20T12:40:32.741Z,23.17
2019-04-20T12:41:49.641Z,23.38
2019-04-20T12:42:33.299Z,23.38
2019-04-20T12:43:34.213Z,22.99
2019-04-20T12:44:32.715Z,22.5
2019-04-20T12:45:33.932Z,22.5
2019-04-20T12:46:33.959Z,22.6
2019-04-20T12:47:32.699Z,22.89
2019-04-20T12:48:33.916Z,22.99
2019-04-20T12:49:34.080Z,22.99
2019-04-20T12:50:32.687Z,23.18
2019-04-20T12:51:45.344Z,23.96
2019-04-20T12:52:32.850Z,24.15
2019-04-20T12:53:33.174Z,23.77
2019-04-20T12:54:32.664Z,23.68
2019-04-20T12:55:32.982Z,23.39
2019-04-20T12:56:33.093Z,23.29
2019-04-20T12:57:32.651Z,22.71
2019-04-20T12:58:33.027Z,22.61
2019-04-20T12:59:34.051Z,22.13
2019-04-20T13:00:33.247Z,21.75
2019-04-20T13:01:33.218Z,21.84
2019-04-20T13:02:33.882Z,21.73
2019-04-20T13:03:32.618Z,22.02
2019-04-20T13:04:33.209Z,22.31
2019-04-20T13:05:33.838Z,22.78
2019-04-20T13:06:32.618Z,22.4
2019-04-20T13:07:44.709Z,22.4
2019-04-20T13:08:44.358Z,22.59
2019-04-20T13:09:33.038Z,22.69
2019-04-20T13:10:34.031Z,22.3
2019-04-20T13:11:46.105Z,21.64
2019-04-20T13:12:32.649Z,20.96
2019-04-20T13:13:32.940Z,21.06
2019-04-20T13:14:33.086Z,20.57
2019-04-20T13:15:32.562Z,20.48
2019-04-20T13:16:32.866Z,21.35
2019-04-20T13:17:32.939Z,22.99
2019-04-20T13:18:32.934Z,22.41
2019-04-20T13:19:33.632Z,21.84
2019-04-20T13:20:32.536Z,21.36
2019-04-20T13:21:34.887Z,21.75
2019-04-20T13:22:33.304Z,21.45
2019-04-20T13:23:33.483Z,20.79
2019-04-20T13:24:34.754Z,20.39
2019-04-20T13:25:33.276Z,21.07
2019-04-20T13:26:33.402Z,21.07
2019-04-20T13:27:34.601Z,21.17
2019-04-20T13:28:33.147Z,21.26
2019-04-20T13:29:33.406Z,20.87
2019-04-20T13:30:32.546Z,20.78
2019-04-20T13:31:33.418Z,21.17
2019-04-20T13:32:33.712Z,21.84
2019-04-20T13:33:33.885Z,22.23
2019-04-20T13:34:32.472Z,21.55
2019-04-20T13:35:32.550Z,21.45
2019-04-20T13:36:32.810Z,21.55
2019-04-20T13:37:36.653Z,21.75
2019-04-20T13:38:32.647Z,21.26
2019-04-20T13:39:33.397Z,20.97
2019-04-20T13:40:33.586Z,21.17
2019-04-20T13:41:33.673Z,21.17
2019-04-20T13:42:36.452Z,21.45
2019-04-20T13:43:32.212Z,21.26
2019-04-20T13:44:33.143Z,21.75
2019-04-20T13:45:33.425Z,21.26
2019-04-20T13:46:33.734Z,20.89
2019-04-20T13:47:33.004Z,20.59
2019-04-20T13:48:33.483Z,19.82
2019-04-20T13:49:33.678Z,20.11
2019-04-20T13:50:33.655Z,20.68
2019-04-20T13:51:34.846Z,20.59
2019-04-20T13:52:33.413Z,21.08
2019-04-20T13:53:32.917Z,19.54
2019-04-20T13:54:32.508Z,18.49
2019-04-20T13:55:33.827Z,17.43
2019-04-20T13:56:32.545Z,16.96
2019-04-20T13:57:33.414Z,15.61
2019-04-20T13:58:32.698Z,15.05
2019-04-20T13:59:32.521Z,14.47
2019-04-20T14:00:32.644Z,13.7
2019-04-20T14:01:33.152Z,13.42
2019-04-20T14:02:33.381Z,12.74
2019-04-20T14:03:32.746Z,12.46
2019-04-20T14:04:33.141Z,12.18
2019-04-20T14:05:33.262Z,11.13
2019-04-20T14:06:33.089Z,10.35
2019-04-20T14:07:33.783Z,10.06
2019-04-20T14:08:33.401Z,9.78
2019-04-20T14:09:33.192Z,10.08
2019-04-20T14:10:33.609Z,9.89
2019-04-20T14:11:33.467Z,9.59
2019-04-20T14:12:52.311Z,8.81
2019-04-20T14:13:48.968Z,8.9
2019-04-20T14:14:33.511Z,9
2019-04-20T14:15:33.605Z,9.09
2019-04-20T14:16:32.568Z,9.28
2019-04-20T14:17:33.291Z,8.99
2019-04-20T14:18:33.510Z,8.89
2019-04-20T14:19:34.772Z,9.09
2019-04-20T14:20:32.296Z,9.38
2019-04-20T14:21:32.768Z,9.67
2019-04-20T14:22:33.826Z,9.87
2019-04-20T14:23:33.346Z,9.97
2019-04-20T14:24:33.268Z,8.7
2019-04-20T14:25:33.626Z,8.51
2019-04-20T14:26:35.957Z,8.32
2019-04-20T14:27:33.287Z,8.41
2019-04-20T14:28:33.584Z,8.9
2019-04-20T14:29:33.099Z,9.28
2019-04-20T14:30:33.349Z,9.67
2019-04-20T14:31:32.439Z,9.47
2019-04-20T14:32:32.515Z,9.47
2019-04-20T14:33:33.185Z,9.86
2019-04-20T14:34:33.493Z,9.08
2019-04-20T14:35:32.623Z,8.98
2019-04-20T14:36:33.219Z,8.89
2019-04-20T14:37:33.344Z,9.08
2019-04-20T14:38:33.963Z,8.7
2019-04-20T14:39:34.122Z,8.31
2019-04-20T14:40:32.759Z,8.62
2019-04-20T14:41:33.839Z,8.23
2019-04-20T14:42:46.207Z,7.84
2019-04-20T14:43:36.414Z,8.33
2019-04-20T14:44:32.358Z,8.03
2019-04-20T14:45:32.368Z,8.52
2019-04-20T14:46:32.143Z,9.39
2019-04-20T14:47:32.275Z,9
2019-04-20T14:48:34.454Z,8.8
2019-04-20T14:49:32.976Z,8.9
2019-04-20T14:50:32.292Z,8.8
2019-04-20T14:51:32.027Z,8.31
2019-04-20T14:52:33.409Z,8.22
2019-04-20T14:53:33.510Z,8.61
2019-04-20T14:54:32.131Z,8.8
2019-04-20T14:55:33.323Z,9.09
2019-04-20T14:56:33.514Z,8.6
2019-04-20T14:57:32.019Z,8.69
2019-04-20T14:58:33.329Z,8.89
2019-04-20T14:59:32.132Z,9.38
2019-04-20T15:00:32.302Z,9.37
2019-04-20T15:01:32.778Z,9.66
2019-04-20T15:02:32.672Z,10.33
2019-04-20T15:03:35.653Z,10.52
2019-04-20T15:04:34.691Z,11.2
2019-04-20T15:05:33.173Z,11.49
2019-04-20T15:06:34.886Z,11.49
2019-04-20T15:07:33.312Z,11.88
2019-04-20T15:08:32.865Z,11
2019-04-20T15:09:34.486Z,10.82
2019-04-20T15:10:33.461Z,10.82
2019-04-20T15:11:32.942Z,11.11
2019-04-20T15:12:52.447Z,10.82
2019-04-20T15:13:33.263Z,10.72
2019-04-20T15:14:32.391Z,10.53
2019-04-20T15:15:32.827Z,10.35
2019-04-20T15:16:33.192Z,10.45
2019-04-20T15:17:33.296Z,9.96
2019-04-20T15:18:33.515Z,9.48
2019-04-20T15:19:32.139Z,9.48
2019-04-20T15:20:33.125Z,9.47
2019-04-20T15:21:33.455Z,9.38
2019-04-20T15:22:31.896Z,9.38
2019-04-20T15:23:33.179Z,9.47
2019-04-20T15:24:33.258Z,9.95
2019-04-20T15:25:32.145Z,10.15
2019-04-20T15:26:34.253Z,10.44
2019-04-20T15:27:33.170Z,10.15
2019-04-20T15:28:32.714Z,9.86
2019-04-20T15:29:32.948Z,10.06
2019-04-20T15:30:32.390Z,10.05
2019-04-20T15:31:32.529Z,10.35
2019-04-20T15:32:33.744Z,10.53
2019-04-20T15:33:33.254Z,10.43
2019-04-20T15:34:33.367Z,10.72
2019-04-20T15:35:33.358Z,10.82
2019-04-20T15:36:32.149Z,11.11
2019-04-20T15:37:33.368Z,11.21
2019-04-20T15:38:33.733Z,10.82
2019-04-20T15:39:32.999Z,10.72
2019-04-20T15:40:33.463Z,10.72
2019-04-20T15:41:33.482Z,10.53
2019-04-20T15:42:33.161Z,10.33
2019-04-20T15:43:33.180Z,10.44
2019-04-20T15:44:33.837Z,10.34
2019-04-20T15:45:33.517Z,9.95
2019-04-20T15:46:36.874Z,9.86
2019-04-20T15:47:32.481Z,9.57
2019-04-20T15:48:32.513Z,9.28
2019-04-20T15:49:33.664Z,9.28
2019-04-20T15:50:32.295Z,9.67
2019-04-20T15:51:32.458Z,9.95
2019-04-20T15:52:45.505Z,10.05
2019-04-20T15:53:33.389Z,10.54
2019-04-20T15:54:33.690Z,9.86
2019-04-20T15:55:41.267Z,9.86
2019-04-20T15:56:33.262Z,10.25
2019-04-20T15:57:36.583Z,9.96
2019-04-20T15:58:32.667Z,9.57
2019-04-20T15:59:33.084Z,9.67
2019-04-20T16:00:32.201Z,9.77
2019-04-20T16:01:32.776Z,10.25
2019-04-20T16:02:33.550Z,10.44
2019-04-20T16:03:32.983Z,10.53
2019-04-20T16:04:40.913Z,11.11
2019-04-20T16:05:33.222Z,11.6
2019-04-20T16:06:32.826Z,11.69
2019-04-20T16:07:47.518Z,11.79
2019-04-20T16:08:34.370Z,11.11
2019-04-20T16:09:33.983Z,10.72
2019-04-20T16:10:33.275Z,11.11
2019-04-20T16:11:33.704Z,11.3
2019-04-20T16:12:33.483Z,11.3
2019-04-20T16:13:43.948Z,11.21
2019-04-20T16:14:33.630Z,11.11
2019-04-20T16:15:32.124Z,11.01
2019-04-20T16:16:33.888Z,10.92
2019-04-20T16:17:43.960Z,10.73
2019-04-20T16:18:34.822Z,11.02
2019-04-20T16:19:52.128Z,10.83
2019-04-20T16:20:57.820Z,11.41
2019-04-20T16:21:37.439Z,11.98
2019-04-20T16:22:34.376Z,12.46
2019-04-20T16:23:32.857Z,13.03
2019-04-20T16:24:35.852Z,13.22
2019-04-20T16:25:32.140Z,12.93
2019-04-20T16:26:33.408Z,12.07
2019-04-20T16:27:33.341Z,11.88
2019-04-20T16:28:32.257Z,11.69
2019-04-20T16:29:33.474Z,11.78
2019-04-20T16:30:33.710Z,11.98
2019-04-20T16:31:33.338Z,11.88
2019-04-20T16:32:34.274Z,11.88
2019-04-20T16:33:32.971Z,11.69
2019-04-20T16:34:32.094Z,11.49
2019-04-20T16:35:32.240Z,11.69
2019-04-20T16:36:32.916Z,11.78
2019-04-20T16:37:33.025Z,11.49
2019-04-20T16:38:33.109Z,11.78
2019-04-20T16:39:32.763Z,12.07
2019-04-20T16:40:33.514Z,12.26
2019-04-20T16:41:33.061Z,11.88
2019-04-20T16:42:32.387Z,11.3
2019-04-20T16:43:42.951Z,10.81
2019-04-20T16:44:33.332Z,10.91
2019-04-20T16:45:32.968Z,11.1
2019-04-20T16:46:32.592Z,11.78
2019-04-20T16:47:32.616Z,11.87
2019-04-20T16:48:33.797Z,12.16
2019-04-20T16:49:33.083Z,12.26
2019-04-20T16:50:33.481Z,12.26
2019-04-20T16:51:32.064Z,11.88
2019-04-20T16:52:33.130Z,11.78
2019-04-20T16:53:33.359Z,11.78
2019-04-20T16:54:32.606Z,12.07
2019-04-20T16:55:33.032Z,12.16
2019-04-20T16:56:33.425Z,11.87
2019-04-20T16:57:32.370Z,11.77
2019-04-20T16:58:32.047Z,11.97
2019-04-20T16:59:46.870Z,12.26
2019-04-20T17:00:32.042Z,12.45